EPKKEPKT

Guest
Details From EPKK - BALICE
To EPKT - PYRZOWICE
Flight Number -
Tags generated
Created
Modified
Stats Distance 36 nm / 67 km
Max Altitude 0 ft / 0 m
Waypoints 2
Social Downloads 0
Likes 0
Share VATSIM

Download

Looking for another format? Having issues loading an existing format? Contact us
Advertisement - Login to hide

Notes

Basic altitude profile: - Ascent Rate: 2500ft/min - Ascent Speed: 250kts - Cruise Altitude: 7000ft - Cruise Speed: 420kts - Descent Rate: 1500ft/min - Descent Speed: 250kts Options: - Use NATs: yes - Use PACOTS: yes - Use low airways: no - Use high airways: yes

Route

EPKK EPKT

ID Type Via Altitude Latitude Longitude Leg Dist Tot Dist Heading (true) Name
O EPKK APT - 0 ft / 0 m 50.07782˚ 19.78550˚ - 0 nm - BALICE
O EPKT APT - 0 ft / 0 m 50.47426˚ 19.07436˚ 36 nm 36 nm 311° / 311° PYRZOWICE

Altitude Profile

Advertisement - Login to hide

EPKK

Details ICAO EPKK (KRK)
Name BALICE
Region Poland
Timezone Europe/Warsaw (UTC+2.0)
Stats Elevation 791 ft / 241 m (AMSL)
Location 50.077821° 19.785503°
Runways 1
Magnetic Variation 5.257° E

METAR

EPKK 262330Z 07004KT 040V100 CAVOK 16/14 Q1022

Decode

TAF

TAF EPKK 262030Z 2621/2721 VRB02KT CAVOK PROB30 TEMPO 2700/2704 4000 BR BECMG 2709/2712 06010KT TEMPO 2712/2718 BKN033CB PROB30 TEMPO 2712/2716 VRB15G30KT 4000 TSRA

Decode

Departure Runways

ID Width Length Bearing (true) Bearing (mag) Surface Threshold Offset Overrun Length
07 197 ft / 60 m 8,343 ft / 2,543 m 77.75° 72.49° Concrete 0 ft / 0 m 0 ft / 0 m
25 197 ft / 60 m 8,343 ft / 2,543 m 257.77° 252.51° Concrete 784 ft / 239 m 0 ft / 0 m

EPKT

Details ICAO EPKT (KTW)
Name PYRZOWICE
Region Poland
Timezone Europe/Warsaw (UTC+2.0)
Stats Elevation 995 ft / 303 m (AMSL)
Location 50.474263° 19.074356°
Runways 1
Magnetic Variation 5.140° E

METAR

EPKT 262330Z VRB02KT 9999 0800W BCFG NSC 12/11 Q1022

Decode

TAF

TAF EPKT 261730Z 2618/2718 VRB02KT CAVOK PROB30 2700/2704 4000 BR BECMG 2709/2712 06010KT TEMPO 2712/2716 SCT040CB

Decode

Destination Runways

ID Width Length Bearing (true) Bearing (mag) Surface Threshold Offset Overrun Length
09 195 ft / 59 m 9,156 ft / 2,791 m 90.18° 85.04° Concrete 0 ft / 0 m 0 ft / 0 m
27 195 ft / 59 m 9,156 ft / 2,791 m 270.22° 265.08° Concrete 0 ft / 0 m 0 ft / 0 m

Approach Navaids

Runway Type Ident Frequency Range Bearing (true) Bearing (mag) Slope Elevation
27 Localiser KAT 109.90 MHz 18 nm / 33 km 270.18° 265.04° - 995 ft / 303 m (AMSL)
27 Glidescope KAT 109.90 MHz 10 nm / 19 km 270.20° 265.06° 3.20° 995 ft / 303 m (AMSL)

Popular Alternatives